createdAt,value
2019-06-07T00:00:55.657Z,10.90
2019-06-07T00:01:55.790Z,10.99
2019-06-07T00:02:55.954Z,11.19
2019-06-07T00:03:56.112Z,11.27
2019-06-07T00:04:56.287Z,11.33
2019-06-07T00:05:56.442Z,11.41
2019-06-07T00:06:56.594Z,11.44
2019-06-07T00:08:07.113Z,11.38
2019-06-07T00:08:58.898Z,11.42
2019-06-07T00:09:57.007Z,11.49
2019-06-07T00:10:57.181Z,11.36
2019-06-07T00:11:57.375Z,11.31
2019-06-07T00:12:57.516Z,11.26
2019-06-07T00:13:57.654Z,11.17
2019-06-07T00:14:57.787Z,11.20
2019-06-07T00:15:57.938Z,11.30
2019-06-07T00:16:58.110Z,11.24
2019-06-07T00:17:58.261Z,11.35
2019-06-07T00:18:58.418Z,11.35
2019-06-07T00:19:58.578Z,11.51
2019-06-07T00:20:58.747Z,11.46
2019-06-07T00:22:29.103Z,11.38
2019-06-07T00:23:01.028Z,11.38
2019-06-07T00:23:59.293Z,11.31
2019-06-07T00:24:59.444Z,11.33
2019-06-07T00:25:59.572Z,11.31
2019-06-07T00:26:59.749Z,11.39
2019-06-07T00:27:59.933Z,11.49
2019-06-07T00:29:00.137Z,11.41
2019-06-07T00:30:00.295Z,11.57
2019-06-07T00:31:00.426Z,11.53
2019-06-07T00:32:00.569Z,11.45
2019-06-07T00:33:00.741Z,11.26
2019-06-07T00:34:00.922Z,11.27
2019-06-07T00:35:01.061Z,11.42
2019-06-07T00:36:01.209Z,12.25
2019-06-07T00:37:01.373Z,11.94
2019-06-07T00:38:01.548Z,11.97
2019-06-07T00:39:01.757Z,11.75
2019-06-07T00:40:14.047Z,11.56
2019-06-07T00:41:04.037Z,11.19
2019-06-07T00:42:02.341Z,10.94
2019-06-07T00:43:02.384Z,10.70
2019-06-07T00:44:02.559Z,10.54
2019-06-07T00:45:02.736Z,10.32
2019-06-07T00:46:02.904Z,10.18
2019-06-07T00:47:03.074Z,10.16
2019-06-07T00:48:03.245Z,10.02
2019-06-07T00:49:03.442Z,10.07
2019-06-07T00:50:03.630Z,9.93
2019-06-07T00:51:03.783Z,9.92
2019-06-07T00:52:03.909Z,9.99
2019-06-07T00:53:16.883Z,10.17
2019-06-07T00:54:06.216Z,10.57
2019-06-07T00:55:04.358Z,10.62
2019-06-07T00:56:04.511Z,10.63
2019-06-07T00:57:04.681Z,10.55
2019-06-07T00:58:04.836Z,10.65
2019-06-07T00:59:11.191Z,10.49
2019-06-07T01:00:07.139Z,10.55
2019-06-07T01:01:05.244Z,10.60
2019-06-07T01:02:05.658Z,10.81
2019-06-07T01:03:06.602Z,10.80
2019-06-07T01:04:05.739Z,10.87
2019-06-07T01:05:05.920Z,10.86
2019-06-07T01:06:06.071Z,10.80
2019-06-07T01:07:06.242Z,10.94
2019-06-07T01:08:06.405Z,10.99
2019-06-07T01:09:06.596Z,10.98
2019-06-07T01:10:06.736Z,10.93
2019-06-07T01:11:06.897Z,10.87
2019-06-07T01:12:07.022Z,10.76
2019-06-07T01:13:07.163Z,10.84
2019-06-07T01:14:07.356Z,10.75
2019-06-07T01:15:07.501Z,10.70
2019-06-07T01:16:07.685Z,10.73
2019-06-07T01:17:26.554Z,10.73
2019-06-07T01:18:35.909Z,10.87
2019-06-07T01:19:10.271Z,10.69
2019-06-07T01:20:08.396Z,10.80
2019-06-07T01:21:08.583Z,10.75
2019-06-07T01:22:08.743Z,10.70
2019-06-07T01:23:51.765Z,10.75
2019-06-07T01:24:12.540Z,10.90
2019-06-07T01:25:10.193Z,10.86
2019-06-07T01:26:09.358Z,10.86
2019-06-07T01:27:09.504Z,10.91
2019-06-07T01:28:09.651Z,10.98
2019-06-07T01:29:09.837Z,10.83
2019-06-07T01:30:10.037Z,10.81
2019-06-07T01:31:10.207Z,10.66
2019-06-07T01:32:10.400Z,10.57
2019-06-07T01:33:10.549Z,10.49
2019-06-07T01:34:10.711Z,10.39
2019-06-07T01:35:10.876Z,10.22
2019-06-07T01:36:11.083Z,10.35
2019-06-07T01:37:11.156Z,10.46
2019-06-07T01:38:11.335Z,10.54
2019-06-07T01:39:11.492Z,10.54
2019-06-07T01:40:11.648Z,10.78
2019-06-07T01:41:11.836Z,10.83
2019-06-07T01:42:11.980Z,10.88
2019-06-07T01:43:12.165Z,10.99
2019-06-07T01:44:12.352Z,11.08
2019-06-07T01:45:12.511Z,11.06
2019-06-07T01:46:12.671Z,11.01
2019-06-07T01:47:12.818Z,11.03
2019-06-07T01:48:13.005Z,11.03
2019-06-07T01:49:13.142Z,11.08
2019-06-07T01:50:13.312Z,11.05
2019-06-07T01:51:13.508Z,10.91
2019-06-07T01:52:13.708Z,10.78
2019-06-07T01:53:13.885Z,10.83
2019-06-07T01:54:49.380Z,10.86
2019-06-07T01:55:16.167Z,10.98
2019-06-07T01:56:14.404Z,11.01
2019-06-07T01:57:31.038Z,11.06
2019-06-07T01:58:17.042Z,10.91
2019-06-07T01:59:14.884Z,10.75
2019-06-07T02:00:15.069Z,10.76
2019-06-07T02:01:15.236Z,10.73
2019-06-07T02:02:15.424Z,10.49
2019-06-07T02:03:15.598Z,10.36
2019-06-07T02:04:15.763Z,10.42
2019-06-07T02:05:15.918Z,11.05
2019-06-07T02:06:16.096Z,10.86
2019-06-07T02:07:16.337Z,10.69
2019-06-07T02:08:16.491Z,10.42
2019-06-07T02:09:16.696Z,10.26
2019-06-07T02:10:16.846Z,10.14
2019-06-07T02:11:18.088Z,9.98
2019-06-07T02:12:28.069Z,9.86
2019-06-07T02:13:19.455Z,9.81
2019-06-07T02:14:19.237Z,9.83
2019-06-07T02:15:21.317Z,9.86
2019-06-07T02:16:19.381Z,9.73
2019-06-07T02:17:20.104Z,9.77
2019-06-07T02:18:21.787Z,9.75
2019-06-07T02:19:19.481Z,9.71
2019-06-07T02:20:20.348Z,9.56
2019-06-07T02:21:20.988Z,9.63
2019-06-07T02:22:21.472Z,9.81
2019-06-07T02:23:20.659Z,9.91
2019-06-07T02:24:23.525Z,9.88
2019-06-07T02:25:41.931Z,9.83
2019-06-07T02:26:22.952Z,9.71
2019-06-07T02:27:20.755Z,9.70
2019-06-07T02:28:29.951Z,9.63
2019-06-07T02:29:22.925Z,9.81
2019-06-07T02:30:44.057Z,9.78
2019-06-07T02:31:25.219Z,10.02
2019-06-07T02:32:25.015Z,9.98
2019-06-07T02:33:25.815Z,9.98
2019-06-07T02:34:24.929Z,9.91
2019-06-07T02:35:25.504Z,9.77
2019-06-07T02:36:26.405Z,9.74
2019-06-07T02:37:26.366Z,9.74
2019-06-07T02:38:23.102Z,9.73
2019-06-07T02:39:25.474Z,9.68
2019-06-07T02:40:24.501Z,9.60
2019-06-07T02:41:27.800Z,9.70
2019-06-07T02:42:26.132Z,9.63
2019-06-07T02:43:27.021Z,9.67
2019-06-07T02:44:28.017Z,9.70
2019-06-07T02:45:26.041Z,9.68
2019-06-07T02:46:32.542Z,9.58
2019-06-07T02:47:28.005Z,9.60
2019-06-07T02:48:27.929Z,9.53
2019-06-07T02:49:28.979Z,9.53
2019-06-07T02:50:28.307Z,9.49
2019-06-07T02:51:31.921Z,9.49
2019-06-07T02:52:30.811Z,9.56
2019-06-07T02:53:27.750Z,9.53
2019-06-07T02:54:27.421Z,9.42
2019-06-07T02:55:30.775Z,9.45
2019-06-07T02:56:42.021Z,9.45
2019-06-07T02:57:29.376Z,9.45
2019-06-07T02:58:32.494Z,9.48
2019-06-07T02:59:57.165Z,9.55
2019-06-07T03:00:45.850Z,9.55
2019-06-07T03:01:35.959Z,9.49
2019-06-07T03:02:33.553Z,9.53
2019-06-07T03:03:31.144Z,9.44
2019-06-07T03:04:29.555Z,9.49
2019-06-07T03:05:30.522Z,9.52
2019-06-07T03:06:33.267Z,9.58
2019-06-07T03:07:30.659Z,9.49
2019-06-07T03:08:30.821Z,9.48
2019-06-07T03:09:30.878Z,9.48
2019-06-07T03:10:31.395Z,9.48
2019-06-07T03:11:31.644Z,9.52
2019-06-07T03:12:33.474Z,9.53
2019-06-07T03:13:30.573Z,9.48
2019-06-07T03:14:32.085Z,9.45
2019-06-07T03:15:35.299Z,9.53
2019-06-07T03:16:36.778Z,9.48
2019-06-07T03:17:35.267Z,9.53
2019-06-07T03:18:32.188Z,9.55
2019-06-07T03:19:34.653Z,9.70
2019-06-07T03:20:34.191Z,9.62
2019-06-07T03:21:33.637Z,9.65
2019-06-07T03:22:31.950Z,9.60
2019-06-07T03:23:33.843Z,9.85
2019-06-07T03:24:33.656Z,9.75
2019-06-07T03:25:35.741Z,9.73
2019-06-07T03:26:42.488Z,9.65
2019-06-07T03:27:41.472Z,9.81
2019-06-07T03:28:36.129Z,9.74
2019-06-07T03:29:36.056Z,9.68
2019-06-07T03:30:48.699Z,9.71
2019-06-07T03:31:45.408Z,9.58
2019-06-07T03:32:42.950Z,9.75
2019-06-07T03:33:41.487Z,9.71
2019-06-07T03:34:41.298Z,9.71
2019-06-07T03:35:37.324Z,9.74
2019-06-07T03:36:38.730Z,9.74
2019-06-07T03:37:40.736Z,9.67
2019-06-07T03:38:36.981Z,9.73
2019-06-07T03:39:37.101Z,9.77
2019-06-07T03:40:38.498Z,9.78
2019-06-07T03:41:43.819Z,9.88
2019-06-07T03:42:39.770Z,9.92
2019-06-07T03:43:38.707Z,9.85
2019-06-07T03:44:40.670Z,10.10
2019-06-07T03:45:40.972Z,10.09
2019-06-07T03:46:38.991Z,10.11
2019-06-07T03:47:41.367Z,9.95
2019-06-07T03:48:41.042Z,9.96
2019-06-07T03:49:41.726Z,10.11
2019-06-07T03:50:41.440Z,10.18
2019-06-07T03:51:39.633Z,10.35
2019-06-07T03:52:40.950Z,10.36
2019-06-07T03:53:40.873Z,10.66
2019-06-07T03:54:38.403Z,10.66
2019-06-07T03:55:41.202Z,10.68
2019-06-07T03:56:40.886Z,10.55
2019-06-07T03:58:29.364Z,10.47
2019-06-07T03:58:49.255Z,10.44
2019-06-07T03:59:41.585Z,10.34
2019-06-07T04:00:42.746Z,10.32
2019-06-07T04:01:41.198Z,10.26
2019-06-07T04:02:41.871Z,10.32
2019-06-07T04:03:47.023Z,10.52
2019-06-07T04:04:40.291Z,10.78
2019-06-07T04:05:43.272Z,10.91
2019-06-07T04:06:42.558Z,10.81
2019-06-07T04:08:01.293Z,10.80
2019-06-07T04:08:41.999Z,10.80
2019-06-07T04:09:43.059Z,10.73
2019-06-07T04:10:58.456Z,10.75
2019-06-07T04:11:41.998Z,10.69
2019-06-07T04:12:43.986Z,10.76
2019-06-07T04:13:42.703Z,10.80
2019-06-07T04:14:43.004Z,10.72
2019-06-07T04:15:41.810Z,10.70
2019-06-07T04:16:44.610Z,10.83
2019-06-07T04:18:00.804Z,10.72
2019-06-07T04:18:44.284Z,10.80
2019-06-07T04:19:43.341Z,10.75
2019-06-07T04:20:42.790Z,10.75
2019-06-07T04:21:42.935Z,10.94
2019-06-07T04:22:43.337Z,10.91
2019-06-07T04:23:45.803Z,10.86
2019-06-07T04:24:43.361Z,10.95
2019-06-07T04:26:03.582Z,10.93
2019-06-07T04:26:46.731Z,10.90
2019-06-07T04:27:43.939Z,10.98
2019-06-07T04:29:30.448Z,11.05
2019-06-07T04:30:05.809Z,11.03
2019-06-07T04:30:44.626Z,11.19
2019-06-07T04:31:43.761Z,11.44
2019-06-07T04:32:44.853Z,11.79
2019-06-07T04:33:45.053Z,12.31
2019-06-07T04:34:44.279Z,12.51
2019-06-07T04:35:45.250Z,12.51
2019-06-07T04:36:56.683Z,12.48
2019-06-07T04:37:46.807Z,12.34
2019-06-07T04:38:45.293Z,12.34
2019-06-07T04:39:45.592Z,12.23
2019-06-07T04:40:45.278Z,12.31
2019-06-07T04:41:45.415Z,12.22
2019-06-07T04:42:45.939Z,12.23
2019-06-07T04:43:46.775Z,12.30
2019-06-07T04:44:45.908Z,12.54
2019-06-07T04:45:51.176Z,12.73
2019-06-07T04:46:47.202Z,12.96
2019-06-07T04:47:46.366Z,12.85
2019-06-07T04:48:47.310Z,12.88
2019-06-07T04:49:46.702Z,13.04
2019-06-07T04:50:46.853Z,13.16
2019-06-07T04:51:47.036Z,13.29
2019-06-07T04:52:47.277Z,13.39
2019-06-07T04:53:47.331Z,13.50
2019-06-07T04:54:47.468Z,13.54
2019-06-07T04:55:47.622Z,13.69
2019-06-07T04:56:47.763Z,13.83
2019-06-07T04:57:47.906Z,13.87
2019-06-07T04:58:48.300Z,14.01
2019-06-07T05:00:32.624Z,14.49
2019-06-07T05:00:58.434Z,14.67
2019-06-07T05:01:50.582Z,14.83
2019-06-07T05:02:48.789Z,14.93
2019-06-07T05:03:49.301Z,15.31
2019-06-07T05:04:49.105Z,15.70
2019-06-07T05:05:49.276Z,15.81
2019-06-07T05:06:49.435Z,16.03
2019-06-07T05:07:49.563Z,16.11
2019-06-07T05:08:50.707Z,16.40
2019-06-07T05:09:49.882Z,16.44
2019-06-07T05:10:50.015Z,16.48
2019-06-07T05:11:50.201Z,16.50
2019-06-07T05:12:50.361Z,16.70
2019-06-07T05:13:50.612Z,16.88
2019-06-07T05:14:51.293Z,17.07
2019-06-07T05:15:50.929Z,17.28
2019-06-07T05:16:51.112Z,17.43
2019-06-07T05:17:51.274Z,17.62
2019-06-07T05:18:51.427Z,17.55
2019-06-07T05:19:51.599Z,17.68
2019-06-07T05:20:51.779Z,17.84
2019-06-07T05:22:03.714Z,17.83
2019-06-07T05:22:54.116Z,17.83
2019-06-07T05:24:10.639Z,17.77
2019-06-07T05:24:54.358Z,17.43
2019-06-07T05:25:52.616Z,17.14
2019-06-07T05:26:52.806Z,16.80
2019-06-07T05:27:52.962Z,16.41
2019-06-07T05:28:53.136Z,16.03
2019-06-07T05:30:36.086Z,16.01
2019-06-07T05:31:04.774Z,16.33
2019-06-07T05:31:55.806Z,16.92
2019-06-07T05:32:53.839Z,17.38
2019-06-07T05:33:54.000Z,17.73
2019-06-07T05:34:54.796Z,17.87
2019-06-07T05:35:54.318Z,18.13
2019-06-07T05:37:10.989Z,18.10
2019-06-07T05:37:56.677Z,17.87
2019-06-07T05:38:54.923Z,17.62
2019-06-07T05:39:55.091Z,17.38
2019-06-07T05:40:55.298Z,17.24
2019-06-07T05:41:55.499Z,17.07
2019-06-07T05:42:55.702Z,16.92
2019-06-07T05:44:12.312Z,16.69
2019-06-07T05:44:58.043Z,16.95
2019-06-07T05:45:56.163Z,17.14
2019-06-07T05:46:56.377Z,17.27
2019-06-07T05:47:56.608Z,17.65
2019-06-07T05:48:56.711Z,17.94
2019-06-07T05:49:56.936Z,18.20
2019-06-07T05:50:57.755Z,18.02
2019-06-07T05:51:58.291Z,17.95
2019-06-07T05:52:57.455Z,18.01
2019-06-07T05:53:57.625Z,18.09
2019-06-07T05:54:57.779Z,17.86
2019-06-07T05:55:58.950Z,18.16
2019-06-07T05:56:58.150Z,18.11
2019-06-07T05:57:58.266Z,18.44
2019-06-07T05:58:58.821Z,18.65
2019-06-07T05:59:58.520Z,18.68
2019-06-07T06:01:40.783Z,18.36
2019-06-07T06:02:09.469Z,18.26
2019-06-07T06:03:05.734Z,18.39
2019-06-07T06:04:01.326Z,18.62
2019-06-07T06:04:59.413Z,18.72
2019-06-07T06:05:59.556Z,18.90
2019-06-07T06:07:00.314Z,18.72
2019-06-07T06:07:59.927Z,18.78
2019-06-07T06:09:13.478Z,19.12
2019-06-07T06:10:02.241Z,19.52
2019-06-07T06:11:00.501Z,19.55
2019-06-07T06:12:02.509Z,19.52
2019-06-07T06:13:01.794Z,19.62
2019-06-07T06:14:07.389Z,19.68
2019-06-07T06:15:03.102Z,19.80
2019-06-07T06:16:02.471Z,19.49
2019-06-07T06:17:02.405Z,19.32
2019-06-07T06:18:01.532Z,19.49
2019-06-07T06:19:02.315Z,19.57
2019-06-07T06:20:02.321Z,19.64
2019-06-07T06:21:16.195Z,19.79
2019-06-07T06:22:04.105Z,19.38
2019-06-07T06:23:02.279Z,19.40
2019-06-07T06:24:03.312Z,19.47
2019-06-07T06:25:30.974Z,19.82
2019-06-07T06:26:04.732Z,19.92
2019-06-07T06:27:18.857Z,19.80
2019-06-07T06:28:11.595Z,19.62
2019-06-07T06:29:05.387Z,19.92
2019-06-07T06:30:03.650Z,20.40
2019-06-07T06:31:03.825Z,20.58
2019-06-07T06:32:40.411Z,20.51
2019-06-07T06:33:06.133Z,20.15
2019-06-07T06:34:04.246Z,20.46
2019-06-07T06:35:04.405Z,21.05
2019-06-07T06:36:04.559Z,21.18
2019-06-07T06:37:04.718Z,20.81
2019-06-07T06:38:04.905Z,20.64
2019-06-07T06:39:05.083Z,20.26
2019-06-07T06:40:05.237Z,20.19
2019-06-07T06:41:15.711Z,19.83
2019-06-07T06:42:07.531Z,20.00
2019-06-07T06:43:05.779Z,20.46
2019-06-07T06:44:05.949Z,20.72
2019-06-07T06:45:06.136Z,20.91
2019-06-07T06:46:06.295Z,20.94
2019-06-07T06:47:06.479Z,20.41
2019-06-07T06:48:06.602Z,19.78
2019-06-07T06:49:06.787Z,20.00
2019-06-07T06:50:06.931Z,19.97
2019-06-07T06:51:07.333Z,20.46
2019-06-07T06:52:07.268Z,20.37
2019-06-07T06:53:07.635Z,20.68
2019-06-07T06:54:08.582Z,20.88
2019-06-07T06:55:07.717Z,21.09
2019-06-07T06:56:07.884Z,21.68
2019-06-07T06:57:19.466Z,21.33
2019-06-07T06:58:10.266Z,20.72
2019-06-07T07:00:10.737Z,20.48
2019-06-07T07:01:09.004Z,20.25
2019-06-07T07:02:09.161Z,20.10
2019-06-07T07:03:47.755Z,20.27
2019-06-07T07:04:13.564Z,19.95
2019-06-07T07:05:10.752Z,19.72
2019-06-07T07:06:25.371Z,19.42
2019-06-07T07:07:12.055Z,19.28
2019-06-07T07:08:10.173Z,18.91
2019-06-07T07:09:10.337Z,18.83
2019-06-07T07:10:10.504Z,18.71
2019-06-07T07:11:10.712Z,18.78
2019-06-07T07:12:14.555Z,19.15
2019-06-07T07:13:12.045Z,19.25
2019-06-07T07:14:11.894Z,19.23
2019-06-07T07:15:11.353Z,19.70
2019-06-07T07:16:11.528Z,20.08
2019-06-07T07:17:11.721Z,19.82
2019-06-07T07:18:11.914Z,19.98
2019-06-07T07:19:12.080Z,19.67
2019-06-07T07:20:12.244Z,19.82
2019-06-07T07:21:12.372Z,20.27
2019-06-07T07:22:12.618Z,20.53
2019-06-07T07:23:12.795Z,20.51
2019-06-07T07:24:21.605Z,20.19
2019-06-07T07:25:15.085Z,20.05
2019-06-07T07:26:13.348Z,20.12
2019-06-07T07:27:13.545Z,20.37
2019-06-07T07:28:13.743Z,20.68
2019-06-07T07:29:13.932Z,20.83
2019-06-07T07:30:35.938Z,21.42
2019-06-07T07:31:16.332Z,21.96
2019-06-07T07:32:14.591Z,21.58
2019-06-07T07:33:14.764Z,20.79
2019-06-07T07:34:33.327Z,20.44
2019-06-07T07:35:17.173Z,20.13
2019-06-07T07:36:37.412Z,19.45
2019-06-07T07:37:17.476Z,19.42
2019-06-07T07:38:15.628Z,19.01
2019-06-07T07:39:17.292Z,18.68
2019-06-07T07:40:56.330Z,18.96
2019-06-07T07:41:17.993Z,19.34
2019-06-07T07:42:21.269Z,19.43
2019-06-07T07:43:18.257Z,19.65
2019-06-07T07:44:16.409Z,19.94
2019-06-07T07:45:16.613Z,19.75
2019-06-07T07:46:31.821Z,19.95
2019-06-07T07:47:18.925Z,19.58
2019-06-07T07:48:18.620Z,19.85
2019-06-07T07:49:18.226Z,20.26
2019-06-07T07:50:17.365Z,20.64
2019-06-07T07:51:18.347Z,20.94
2019-06-07T07:52:17.732Z,20.79
2019-06-07T07:53:17.910Z,20.91
2019-06-07T07:54:18.059Z,20.91
2019-06-07T07:55:18.316Z,21.05
2019-06-07T07:56:18.365Z,21.27
2019-06-07T07:57:19.506Z,21.19
2019-06-07T07:58:18.765Z,21.05
2019-06-07T07:59:18.880Z,20.51
2019-06-07T08:00:50.109Z,20.31
2019-06-07T08:01:21.238Z,20.31
2019-06-07T08:02:19.431Z,20.72
2019-06-07T08:03:19.907Z,20.75
2019-06-07T08:04:39.686Z,21.11
2019-06-07T08:05:29.106Z,21.19
2019-06-07T08:06:22.178Z,21.28
2019-06-07T08:07:20.397Z,21.51
2019-06-07T08:08:20.569Z,21.24
2019-06-07T08:09:20.729Z,21.11
2019-06-07T08:10:20.964Z,20.97
2019-06-07T08:11:21.850Z,20.87
2019-06-07T08:12:21.345Z,21.03
2019-06-07T08:13:26.407Z,21.27
2019-06-07T08:14:24.350Z,21.55
2019-06-07T08:15:21.714Z,21.61
2019-06-07T08:16:21.857Z,21.66
2019-06-07T08:17:22.854Z,21.46
2019-06-07T08:18:22.939Z,21.56
2019-06-07T08:19:22.343Z,21.73
2019-06-07T08:20:22.492Z,21.51
2019-06-07T08:21:26.681Z,21.09
2019-06-07T08:22:24.361Z,21.22
2019-06-07T08:23:22.975Z,21.33
2019-06-07T08:24:23.160Z,21.19
2019-06-07T08:25:23.325Z,21.31
2019-06-07T08:26:23.901Z,21.55
2019-06-07T08:27:26.789Z,21.21
2019-06-07T08:28:24.899Z,21.05
2019-06-07T08:29:24.037Z,21.16
2019-06-07T08:31:26.382Z,21.75
2019-06-07T08:32:25.364Z,22.05
2019-06-07T08:33:26.641Z,22.19
2019-06-07T08:34:25.874Z,22.23
2019-06-07T08:36:40.876Z,22.06
2019-06-07T08:36:41.312Z,21.98
2019-06-07T08:38:13.284Z,21.66
2019-06-07T08:38:46.601Z,21.82
2019-06-07T08:39:26.770Z,22.01
2019-06-07T08:40:25.942Z,21.86
2019-06-07T08:41:26.095Z,22.04
2019-06-07T08:42:37.113Z,22.06
2019-06-07T08:43:28.494Z,22.08
2019-06-07T08:44:26.773Z,22.15
2019-06-07T08:45:26.927Z,21.99
2019-06-07T08:46:27.106Z,22.42
2019-06-07T08:47:27.872Z,22.93
2019-06-07T08:48:30.003Z,23.14
2019-06-07T08:49:28.568Z,22.19
2019-06-07T08:50:27.749Z,21.93
2019-06-07T08:51:27.946Z,21.59
2019-06-07T08:52:28.107Z,21.36
2019-06-07T08:53:28.280Z,21.09
2019-06-07T08:54:28.466Z,21.16
2019-06-07T08:55:28.897Z,21.59
2019-06-07T08:56:28.846Z,21.51
2019-06-07T08:57:29.883Z,21.82
2019-06-07T08:58:29.116Z,21.61
2019-06-07T08:59:29.259Z,21.28
2019-06-07T09:00:45.423Z,21.21
2019-06-07T09:01:31.570Z,21.46
2019-06-07T09:02:29.676Z,21.63
2019-06-07T09:03:29.892Z,21.96
2019-06-07T09:04:30.071Z,22.04
2019-06-07T09:05:30.903Z,22.06
2019-06-07T09:07:32.578Z,21.49
2019-06-07T09:08:31.064Z,21.64
2019-06-07T09:09:32.113Z,21.90
2019-06-07T09:10:32.698Z,22.14
2019-06-07T09:11:31.445Z,22.11
2019-06-07T09:12:31.607Z,22.11
2019-06-07T09:13:31.783Z,22.44
2019-06-07T09:14:31.977Z,22.59
2019-06-07T09:15:32.123Z,22.42
2019-06-07T09:16:32.287Z,22.06
2019-06-07T09:17:34.209Z,21.74
2019-06-07T09:18:42.989Z,22.11
2019-06-07T09:19:34.805Z,22.48
2019-06-07T09:20:36.981Z,22.74
2019-06-07T09:21:34.878Z,22.67
2019-06-07T09:22:33.431Z,22.78
2019-06-07T09:23:33.598Z,22.79
2019-06-07T09:24:33.894Z,22.56
2019-06-07T09:25:52.395Z,22.36
2019-06-07T09:26:36.082Z,22.45
2019-06-07T09:27:34.446Z,22.14
2019-06-07T09:28:34.352Z,22.49
2019-06-07T09:29:34.504Z,22.94
2019-06-07T09:30:34.684Z,22.96
2019-06-07T09:31:51.774Z,22.57
2019-06-07T09:32:37.095Z,23.11
2019-06-07T09:33:35.201Z,23.12
2019-06-07T09:34:35.365Z,23.22
2019-06-07T09:35:35.503Z,23.31
2019-06-07T09:36:36.402Z,23.60
2019-06-07T09:38:04.228Z,23.44
2019-06-07T09:38:37.955Z,23.18
2019-06-07T09:39:36.097Z,23.21
2019-06-07T09:40:36.233Z,23.49
2019-06-07T09:41:47.367Z,23.69
2019-06-07T09:42:38.674Z,23.82
2019-06-07T09:44:39.900Z,23.26
2019-06-07T09:45:37.136Z,23.15
2019-06-07T09:46:37.292Z,23.68
2019-06-07T09:47:37.465Z,23.78
2019-06-07T09:49:39.761Z,23.50
2019-06-07T09:50:38.038Z,23.44
2019-06-07T09:51:38.079Z,23.69
2019-06-07T09:52:57.384Z,23.97
2019-06-07T09:53:40.521Z,23.74
2019-06-07T09:55:40.743Z,24.39
2019-06-07T09:56:38.976Z,24.45
2019-06-07T09:57:39.116Z,24.06
2019-06-07T09:58:54.747Z,23.37
2019-06-07T09:59:41.413Z,23.06
2019-06-07T10:00:42.329Z,23.21
2019-06-07T10:01:40.829Z,23.34
2019-06-07T10:02:39.956Z,23.71
2019-06-07T10:03:41.140Z,23.50
2019-06-07T10:04:40.260Z,23.45
2019-06-07T10:05:40.407Z,23.38
2019-06-07T10:06:40.556Z,23.23
2019-06-07T10:07:59.197Z,23.11
2019-06-07T10:09:56.994Z,22.93
2019-06-07T10:10:11.674Z,22.74
2019-06-07T10:10:43.501Z,23.18
2019-06-07T10:11:41.538Z,23.63
2019-06-07T10:12:41.762Z,23.69
2019-06-07T10:13:41.919Z,23.84
2019-06-07T10:14:45.074Z,23.56
2019-06-07T10:15:42.268Z,23.59
2019-06-07T10:16:46.838Z,23.47
2019-06-07T10:17:43.649Z,23.39
2019-06-07T10:18:42.785Z,23.18
2019-06-07T10:19:42.914Z,23.38
2019-06-07T10:20:43.106Z,23.74
2019-06-07T10:21:43.249Z,23.68
2019-06-07T10:22:43.910Z,23.71
2019-06-07T10:23:43.533Z,24.09
2019-06-07T10:24:43.667Z,23.79
2019-06-07T10:25:44.861Z,23.64
2019-06-07T10:26:44.001Z,23.32
2019-06-07T10:27:44.243Z,23.38
2019-06-07T10:28:44.429Z,23.37
2019-06-07T10:29:44.634Z,23.49
2019-06-07T10:30:44.820Z,23.49
2019-06-07T10:31:44.970Z,23.69
2019-06-07T10:32:45.110Z,23.62
2019-06-07T10:33:45.270Z,23.38
2019-06-07T10:34:45.464Z,23.54
2019-06-07T10:35:45.934Z,23.97
2019-06-07T10:36:45.838Z,24.41
2019-06-07T10:37:45.994Z,24.52
2019-06-07T10:38:46.148Z,24.19
2019-06-07T10:39:49.213Z,23.78
2019-06-07T10:40:47.491Z,23.50
2019-06-07T10:41:46.732Z,23.72
2019-06-07T10:42:46.857Z,23.53
2019-06-07T10:43:46.992Z,23.63
2019-06-07T10:44:47.140Z,23.77
2019-06-07T10:45:47.289Z,23.94
2019-06-07T10:46:47.456Z,23.84
2019-06-07T10:47:47.628Z,23.52
2019-06-07T10:48:47.789Z,23.53
2019-06-07T10:49:47.945Z,23.79
2019-06-07T10:50:48.920Z,23.97
2019-06-07T10:51:48.285Z,24.37
2019-06-07T10:52:48.944Z,24.18
2019-06-07T10:53:48.580Z,23.90
2019-06-07T10:54:48.735Z,23.99
2019-06-07T10:55:48.907Z,23.54
2019-06-07T10:56:49.112Z,23.77
2019-06-07T10:57:49.305Z,24.02
2019-06-07T10:58:49.435Z,24.34
2019-06-07T10:59:49.601Z,24.49
2019-06-07T11:00:50.419Z,24.55
2019-06-07T11:01:49.940Z,24.80
2019-06-07T11:02:50.111Z,24.97
2019-06-07T11:03:50.283Z,25.39
2019-06-07T11:04:50.460Z,25.44
2019-06-07T11:05:50.652Z,25.60
2019-06-07T11:06:50.855Z,25.63
2019-06-07T11:07:51.221Z,25.27
2019-06-07T11:08:51.237Z,25.12
2019-06-07T11:10:05.628Z,25.22
2019-06-07T11:10:53.509Z,25.08
2019-06-07T11:11:51.744Z,25.07
2019-06-07T11:12:52.422Z,25.04
2019-06-07T11:13:52.639Z,25.27
2019-06-07T11:14:53.253Z,25.64
2019-06-07T11:15:52.400Z,26.08
2019-06-07T11:16:52.586Z,25.67
2019-06-07T11:17:52.790Z,25.23
2019-06-07T11:18:52.970Z,25.35
2019-06-07T11:19:53.174Z,25.24
2019-06-07T11:20:54.329Z,25.02
2019-06-07T11:21:54.444Z,25.02
2019-06-07T11:22:53.609Z,25.02
2019-06-07T11:23:53.776Z,24.86
2019-06-07T11:24:53.963Z,25.01
2019-06-07T11:25:54.448Z,25.38
2019-06-07T11:26:54.354Z,25.78
2019-06-07T11:27:54.504Z,25.82
2019-06-07T11:28:54.665Z,25.38
2019-06-07T11:29:54.831Z,25.41
2019-06-07T11:30:55.058Z,25.45
2019-06-07T11:31:55.221Z,25.63
2019-06-07T11:32:55.387Z,25.49
2019-06-07T11:33:55.512Z,25.60
2019-06-07T11:34:55.651Z,25.79
2019-06-07T11:35:55.819Z,25.79
2019-06-07T11:36:55.989Z,25.75
2019-06-07T11:37:56.138Z,25.34
2019-06-07T11:38:56.280Z,25.36
2019-06-07T11:39:56.411Z,25.45
2019-06-07T11:40:56.597Z,25.35
2019-06-07T11:41:56.758Z,25.63
2019-06-07T11:42:56.924Z,25.66
2019-06-07T11:43:57.085Z,25.89
2019-06-07T11:44:57.464Z,26.11
2019-06-07T11:45:58.427Z,26.08
2019-06-07T11:46:57.525Z,26.13
2019-06-07T11:47:59.847Z,26.29
2019-06-07T11:48:58.882Z,26.27
2019-06-07T11:49:58.120Z,26.13
2019-06-07T11:50:58.277Z,26.23
2019-06-07T11:51:58.455Z,26.46
2019-06-07T11:52:59.451Z,26.00
2019-06-07T11:53:58.806Z,25.97
2019-06-07T11:54:58.950Z,26.12
2019-06-07T11:55:59.236Z,25.74
2019-06-07T11:56:59.418Z,25.38
2019-06-07T11:57:59.544Z,25.53
2019-06-07T11:58:59.704Z,25.75
2019-06-07T11:59:59.834Z,25.69
2019-06-07T12:00:59.953Z,25.82
2019-06-07T12:02:00.086Z,26.13
2019-06-07T12:03:00.266Z,26.20
2019-06-07T12:04:00.455Z,26.50
2019-06-07T12:05:00.637Z,26.60
2019-06-07T12:06:00.803Z,26.71
2019-06-07T12:07:00.986Z,26.76
2019-06-07T12:08:01.195Z,26.98
2019-06-07T12:09:01.317Z,26.73
2019-06-07T12:10:01.447Z,26.79
2019-06-07T12:11:01.585Z,26.06
2019-06-07T12:12:01.751Z,26.06
2019-06-07T12:13:01.928Z,26.09
2019-06-07T12:14:02.085Z,25.98
2019-06-07T12:15:02.236Z,25.85
2019-06-07T12:16:02.464Z,25.83
2019-06-07T12:17:02.593Z,25.54
2019-06-07T12:18:02.756Z,25.79
2019-06-07T12:19:02.914Z,25.96
2019-06-07T12:20:03.240Z,26.31
2019-06-07T12:21:03.241Z,26.84
2019-06-07T12:22:03.402Z,27.06
2019-06-07T12:23:03.965Z,27.59
2019-06-07T12:24:03.784Z,27.90
2019-06-07T12:25:05.953Z,27.84
2019-06-07T12:26:05.021Z,27.98
2019-06-07T12:27:04.951Z,28.09
2019-06-07T12:28:04.362Z,28.13
2019-06-07T12:29:05.452Z,27.98
2019-06-07T12:30:09.814Z,27.78
2019-06-07T12:31:06.937Z,27.08
2019-06-07T12:32:05.141Z,26.35
2019-06-07T12:33:05.316Z,26.38
2019-06-07T12:34:05.455Z,26.60
2019-06-07T12:35:06.458Z,26.86
2019-06-07T12:36:05.707Z,27.23
2019-06-07T12:37:05.906Z,27.48
2019-06-07T12:38:06.056Z,27.21
2019-06-07T12:39:06.214Z,27.34
2019-06-07T12:40:06.410Z,27.23
2019-06-07T12:41:06.501Z,27.50
2019-06-07T12:42:06.655Z,27.81
2019-06-07T12:43:06.806Z,27.63
2019-06-07T12:44:06.988Z,27.55
2019-06-07T12:45:07.111Z,27.61
2019-06-07T12:46:07.240Z,27.71
2019-06-07T12:47:07.397Z,27.90
2019-06-07T12:48:07.626Z,27.96
2019-06-07T12:49:07.675Z,27.93
2019-06-07T12:50:07.861Z,27.39
2019-06-07T12:51:08.031Z,27.58
2019-06-07T12:52:08.994Z,28.09
2019-06-07T12:53:08.429Z,28.32
2019-06-07T12:54:08.606Z,28.36
2019-06-07T12:55:09.470Z,28.65
2019-06-07T12:56:10.014Z,27.50
2019-06-07T12:57:09.228Z,26.81
2019-06-07T12:58:09.971Z,26.96
2019-06-07T12:59:09.539Z,26.86
2019-06-07T13:00:10.477Z,26.81
2019-06-07T13:01:10.477Z,26.66
2019-06-07T13:02:10.523Z,26.66
2019-06-07T13:03:10.143Z,26.50
2019-06-07T13:04:10.341Z,26.54